Terminal Aerodrome Forecast
Issued by NWS Columbia, SC

Home | Current Version | Previous Version | Text Only | Print | Product List | Glossary On
Versions: 1 2 3 4 5 6 7 8 9 10 11 12 13 14 15 16 17 18 19 20 21 22 23 24 25 26 27 28 29 30 31 32 33 34 35 36 37 38 39 40 41
000
FTUS42 KCAE 031300 AAA
TAFCAE
TAF AMD
KCAE 031311Z 0313/0412 08006KT 2SM -DZ BR VCSH OVC005
     FM031500 08006KT 2SM -RADZ BR OVC005 WS020/19028KT
     FM040500 19006KT 1SM BR OVC003 WS020/21035KT=

USA.gov is the U.S. government's official web portal to all federal, state and local government web resources and services.